Time;durP1;ratioP1;P1;durP2;ratioP2;P2;SDS_P1;SDS_P2;PMS_P1;PMS_P2;Temp;Humidity;BMP_temperature;BMP_pressure;BME280_temperature;BME280_humidity;BME280_pressure;Samples;Min_cycle;Max_cycle;Signal;HPM_P1;HPM_P2
2023/12/05 00:01:40;;;;;;;3.55;1.33;;;20.70;99.90;;;;;;4934768;29;20136;-48
2023/12/05 00:04:06;;;;;;;2.20;1.15;;;20.70;99.90;;;;;;4933821;29;20497;-47
2023/12/05 00:06:31;;;;;;;1.88;1.20;;;20.70;99.90;;;;;;4934393;29;20551;-48
2023/12/05 00:08:57;;;;;;;2.42;1.20;;;20.60;99.90;;;;;;4934555;29;20035;-48
2023/12/05 00:11:23;;;;;;;2.58;0.93;;;20.70;99.90;;;;;;4934736;29;20058;-49
2023/12/05 00:13:49;;;;;;;2.60;1.50;;;20.60;99.90;;;;;;4933694;29;20095;-48
2023/12/05 00:16:14;;;;;;;2.97;1.23;;;20.60;99.90;;;;;;4934275;29;20144;-48
2023/12/05 00:18:44;;;;;;;2.22;1.27;;;20.60;99.90;;;;;;4934369;29;20416;-48
2023/12/05 00:21:09;;;;;;;2.65;1.00;;;20.60;99.90;;;;;;4933869;29;20425;-48
2023/12/05 00:23:35;;;;;;;2.45;1.23;;;20.60;99.90;;;;;;4948407;29;20020;-48
2023/12/05 00:26:01;;;;;;;2.78;1.08;;;20.60;99.90;;;;;;4934849;28;20032;-48
2023/12/05 00:28:27;;;;;;;3.03;1.10;;;20.60;99.90;;;;;;4935034;29;20024;-48
2023/12/05 00:30:52;;;;;;;2.53;1.10;;;20.60;99.90;;;;;;4933300;29;20551;-48
2023/12/05 00:33:18;;;;;;;1.05;0.77;;;20.60;99.90;;;;;;4933730;29;20083;-49
2023/12/05 00:35:44;;;;;;;2.22;1.27;;;20.60;99.90;;;;;;4934278;29;20035;-47
2023/12/05 00:38:10;;;;;;;1.38;0.93;;;20.60;99.90;;;;;;4934216;29;20024;-47
2023/12/05 00:40:35;;;;;;;2.15;1.23;;;20.60;99.90;;;;;;4933704;29;20074;-48
2023/12/05 00:43:01;;;;;;;3.70;1.15;;;20.60;99.90;;;;;;4933983;29;20416;-47
2023/12/05 00:45:27;;;;;;;1.55;1.10;;;20.60;99.90;;;;;;4935281;29;20429;-48
2023/12/05 00:47:53;;;;;;;3.10;1.60;;;20.60;99.90;;;;;;4931674;29;20028;-48
2023/12/05 00:50:19;;;;;;;2.30;1.35;;;20.60;99.90;;;;;;4933708;29;20035;-48
2023/12/05 00:52:46;;;;;;;3.47;1.70;;;20.50;99.90;;;;;;4933915;29;20042;-48
2023/12/05 00:55:12;;;;;;;1.73;1.23;;;20.50;99.90;;;;;;4933948;29;20487;-48
2023/12/05 00:57:37;;;;;;;2.67;1.98;;;20.50;99.90;;;;;;4933147;29;20039;-48
2023/12/05 01:02:33;;;;;;;1.63;1.02;;;20.50;99.90;;;;;;4971343;28;20051;-50
2023/12/05 01:04:59;;;;;;;2.92;1.55;;;20.50;99.90;;;;;;4972693;28;20034;-49
2023/12/05 01:07:24;;;;;;;2.53;1.25;;;20.50;99.90;;;;;;4971603;28;20014;-49
2023/12/05 01:09:50;;;;;;;2.42;1.40;;;20.50;99.90;;;;;;4971896;28;20506;-50
2023/12/05 01:12:16;;;;;;;2.53;1.45;;;20.50;99.90;;;;;;4972372;28;20532;-49
2023/12/05 01:14:42;;;;;;;3.55;1.50;;;20.50;99.90;;;;;;4971079;28;20439;-50
2023/12/05 01:17:08;;;;;;;1.50;1.00;;;20.50;99.90;;;;;;4971188;28;20027;-49
2023/12/05 01:19:35;;;;;;;4.03;1.50;;;20.50;99.90;;;;;;4971859;28;20102;-50
2023/12/05 01:22:03;;;;;;;3.58;1.08;;;20.50;99.90;;;;;;4972373;28;20023;-49
2023/12/05 01:24:28;;;;;;;;;;;20.50;99.90;;;;;;4972209;28;20039;-49
2023/12/05 01:26:54;;;;;;;3.85;1.42;;;20.50;99.90;;;;;;4971266;28;19913;-49
2023/12/05 01:29:20;;;;;;;3.05;1.92;;;20.50;99.90;;;;;;4972562;28;20042;-50
2023/12/05 01:31:46;;;;;;;1.75;1.08;;;20.50;99.90;;;;;;4970901;28;20053;-49
2023/12/05 01:34:11;;;;;;;3.53;1.35;;;20.40;99.90;;;;;;4970895;28;20027;-49
2023/12/05 01:36:37;;;;;;;1.90;1.10;;;20.40;99.90;;;;;;4971564;28;20038;-48
2023/12/05 01:39:03;;;;;;;2.38;1.13;;;20.40;99.90;;;;;;4974530;28;20045;-49
2023/12/05 01:41:29;;;;;;;4.68;1.33;;;20.40;99.90;;;;;;4976034;28;20037;-47
2023/12/05 01:43:54;;;;;;;3.55;1.40;;;20.40;99.90;;;;;;4974821;28;20038;-47
2023/12/05 01:46:21;;;;;;;1.63;1.00;;;20.40;99.90;;;;;;4973854;28;20068;-48
2023/12/05 01:48:47;;;;;;;4.00;1.70;;;20.40;99.90;;;;;;4975786;28;20034;-49
2023/12/05 01:51:14;;;;;;;2.40;0.98;;;20.40;99.90;;;;;;4974953;28;20039;-49
2023/12/05 01:53:42;;;;;;;3.28;1.20;;;20.40;99.90;;;;;;4975277;28;20065;-48
2023/12/05 01:56:10;;;;;;;3.20;1.10;;;20.40;99.90;;;;;;4975186;28;20041;-48
2023/12/05 01:58:37;;;;;;;3.95;1.08;;;20.40;99.90;;;;;;4975404;28;20055;-48
2023/12/05 02:01:08;;;;;;;3.05;1.05;;;20.40;99.90;;;;;;4995692;23;20058;-49
2023/12/05 02:03:34;;;;;;;2.05;1.10;;;20.40;99.90;;;;;;5008352;28;20102;-49
2023/12/05 02:06:00;;;;;;;2.70;1.10;;;20.40;99.90;;;;;;4996108;28;20121;-47
2023/12/05 02:08:30;;;;;;;1.48;1.10;;;20.40;99.90;;;;;;4994499;28;20042;-47
2023/12/05 02:10:55;;;;;;;1.88;0.95;;;20.40;99.90;;;;;;5008403;28;20486;-47
2023/12/05 02:13:21;;;;;;;2.08;1.17;;;20.40;99.90;;;;;;4997681;28;20026;-48
2023/12/05 02:16:02;;;;;;;2.90;1.30;;;20.40;99.90;;;;;;4994815;28;20105;-47
2023/12/05 02:18:33;;;;;;;1.98;1.20;;;20.40;99.90;;;;;;4993894;28;20034;-47
2023/12/05 02:21:30;;;;;;;3.13;1.45;;;20.40;99.90;;;;;;4994625;28;20330;-47
2023/12/05 02:24:15;;;;;;;2.97;1.70;;;20.40;99.90;;;;;;4994965;28;20499;-48
2023/12/05 02:26:52;;;;;;;1.60;0.77;;;20.40;99.90;;;;;;4994374;28;20041;-47
2023/12/05 02:29:18;;;;;;;1.90;1.10;;;20.40;99.90;;;;;;4994302;28;20019;-47
2023/12/05 02:31:44;;;;;;;1.92;0.95;;;20.40;99.90;;;;;;4996202;28;20563;-48
2023/12/05 02:34:10;;;;;;;2.03;1.10;;;20.30;99.90;;;;;;5008676;28;20036;-48
2023/12/05 02:36:49;;;;;;;2.08;0.82;;;20.40;99.90;;;;;;5007912;28;20030;-47
2023/12/05 02:39:48;;;;;;;1.63;0.82;;;20.30;99.90;;;;;;4995550;28;20026;-47
2023/12/05 02:42:17;;;;;;;2.08;1.13;;;20.30;99.90;;;;;;4994061;28;20026;-48
2023/12/05 02:44:50;;;;;;;2.75;0.93;;;20.30;99.90;;;;;;4992679;28;20031;-48
2023/12/05 02:47:20;;;;;;;4.30;1.45;;;20.30;99.90;;;;;;4993924;28;20050;-47
2023/12/05 02:49:46;;;;;;;2.28;1.00;;;20.30;99.90;;;;;;4995248;28;20497;-48
2023/12/05 02:52:12;;;;;;;4.25;1.15;;;20.30;99.90;;;;;;4993436;28;20049;-48
2023/12/05 02:54:37;;;;;;;1.75;1.25;;;20.30;99.90;;;;;;4992560;28;20030;-48
2023/12/05 02:57:03;;;;;;;1.92;0.80;;;20.30;99.90;;;;;;4994055;28;20034;-48
2023/12/05 02:59:29;;;;;;;1.17;0.70;;;20.30;99.90;;;;;;4995285;28;20026;-48
2023/12/05 03:01:55;;;;;;;1.65;0.82;;;20.30;99.90;;;;;;4994035;28;20165;-49
2023/12/05 03:04:21;;;;;;;2.00;1.05;;;20.30;99.90;;;;;;4992679;28;20133;-48
2023/12/05 03:06:46;;;;;;;2.55;1.10;;;20.30;99.90;;;;;;4995282;28;20069;-48
2023/12/05 03:09:12;;;;;;;2.22;1.20;;;20.30;99.90;;;;;;4993980;28;20522;-48
2023/12/05 03:11:38;;;;;;;1.65;0.88;;;20.30;99.90;;;;;;4993337;28;20038;-48
2023/12/05 03:14:04;;;;;;;1.70;1.00;;;20.30;99.90;;;;;;4993133;28;20023;-47
2023/12/05 03:16:30;;;;;;;2.30;1.10;;;20.30;99.90;;;;;;4995322;28;20478;-47
2023/12/05 03:18:57;;;;;;;0.90;0.60;;;20.30;99.90;;;;;;4993458;28;20104;-48
2023/12/05 03:21:23;;;;;;;1.13;0.88;;;20.30;99.90;;;;;;4992066;28;20022;-48
2023/12/05 03:23:48;;;;;;;1.52;0.77;;;20.30;99.90;;;;;;4993197;28;20430;-48
2023/12/05 03:26:21;;;;;;;2.25;0.90;;;20.30;99.90;;;;;;4995160;28;20415;-48
2023/12/05 03:28:48;;;;;;;3.28;0.85;;;20.30;99.90;;;;;;4993376;28;20022;-48
2023/12/05 03:31:14;;;;;;;2.22;1.08;;;20.30;99.90;;;;;;4991927;28;20125;-48
2023/12/05 03:33:40;;;;;;;1.48;0.85;;;20.30;99.90;;;;;;4994478;28;20437;-49
2023/12/05 03:36:06;;;;;;;1.92;0.90;;;20.30;99.90;;;;;;4993572;28;20109;-48
2023/12/05 03:38:32;;;;;;;5.22;1.17;;;20.30;99.90;;;;;;4992086;28;20022;-48
2023/12/05 03:40:58;;;;;;;1.88;0.90;;;20.30;99.90;;;;;;4991938;28;20110;-48
2023/12/05 03:43:24;;;;;;;3.40;1.10;;;20.30;99.90;;;;;;4995278;28;20018;-49
2023/12/05 03:45:50;;;;;;;1.48;0.77;;;20.30;99.90;;;;;;4993127;28;20030;-48
2023/12/05 03:48:16;;;;;;;1.38;0.88;;;20.30;99.90;;;;;;4992415;28;20026;-48
2023/12/05 03:50:41;;;;;;;2.45;1.17;;;20.30;99.90;;;;;;5007523;28;20122;-48
2023/12/05 03:53:07;;;;;;;1.20;0.82;;;20.30;99.90;;;;;;4995034;28;20034;-48
2023/12/05 03:55:34;;;;;;;1.25;0.77;;;20.20;99.90;;;;;;4992718;28;20522;-48
2023/12/05 03:58:00;;;;;;;1.35;0.70;;;20.20;99.90;;;;;;4990448;28;20026;-48
2023/12/05 04:00:28;;;;;;;1.80;0.73;;;20.20;99.90;;;;;;5002281;23;20140;31
2023/12/05 04:02:55;;;;;;;5.53;0.90;;;20.20;99.90;;;;;;4952631;28;20051;-52
2023/12/05 04:05:21;;;;;;;2.97;0.90;;;20.20;99.90;;;;;;4954113;28;20082;-51
2023/12/05 04:07:46;;;;;;;2.25;1.25;;;20.20;99.90;;;;;;4951218;28;20545;-52
2023/12/05 04:10:12;;;;;;;2.08;1.02;;;20.20;99.90;;;;;;4953095;29;20028;-51
2023/12/05 04:12:39;;;;;;;2.60;0.90;;;20.20;99.90;;;;;;4953773;28;20591;-51
2023/12/05 04:15:06;;;;;;;1.37;0.87;;;20.20;99.90;;;;;;4953675;28;20032;-51
2023/12/05 04:17:32;;;;;;;1.13;0.70;;;20.20;99.90;;;;;;4953161;28;20273;-51
2023/12/05 04:19:58;;;;;;;1.50;1.08;;;20.20;99.90;;;;;;4953122;28;20043;-51
2023/12/05 04:22:24;;;;;;;1.63;0.80;;;20.20;99.90;;;;;;4952373;28;20479;-51
2023/12/05 04:24:50;;;;;;;2.45;1.02;;;20.20;99.90;;;;;;4952983;28;20027;-51
2023/12/05 04:27:15;;;;;;;1.52;0.80;;;20.20;99.90;;;;;;4952247;29;20041;-51
2023/12/05 04:29:42;;;;;;;2.42;0.95;;;20.20;99.90;;;;;;4952659;29;20455;-51
2023/12/05 04:32:08;;;;;;;1.57;0.90;;;20.20;99.90;;;;;;4953276;28;20039;-54
2023/12/05 04:34:35;;;;;;;1.52;0.75;;;20.20;99.90;;;;;;4952049;29;20086;-52
2023/12/05 04:37:00;;;;;;;1.92;0.60;;;20.20;99.90;;;;;;4952824;29;20029;-51
2023/12/05 04:39:26;;;;;;;2.65;0.90;;;20.20;99.90;;;;;;4953318;28;20035;-52
2023/12/05 04:41:52;;;;;;;1.13;0.47;;;20.20;99.90;;;;;;4953784;29;20144;-52
2023/12/05 04:44:18;;;;;;;1.58;1.00;;;20.20;99.90;;;;;;4952402;29;20031;-54
2023/12/05 04:46:43;;;;;;;0.80;0.68;;;20.10;99.90;;;;;;4952820;28;20023;-52
2023/12/05 04:49:09;;;;;;;1.48;0.90;;;20.20;99.90;;;;;;4968116;28;20035;-52
2023/12/05 04:51:35;;;;;;;1.70;0.57;;;20.20;99.90;;;;;;4952738;28;20031;-52
2023/12/05 04:54:01;;;;;;;1.17;0.70;;;20.20;99.90;;;;;;4952997;29;20024;-52
2023/12/05 04:56:27;;;;;;;1.25;0.50;;;20.10;99.90;;;;;;4952729;28;20035;-52
2023/12/05 04:58:53;;;;;;;1.25;0.60;;;20.20;99.90;;;;;;4953383;29;20027;-52
2023/12/05 05:01:19;;;;;;;1.48;0.80;;;20.10;99.90;;;;;;4952450;29;20451;-52
2023/12/05 05:03:44;;;;;;;2.20;0.98;;;20.20;99.90;;;;;;4950012;28;20110;-52
2023/12/05 05:06:11;;;;;;;1.48;0.70;;;20.20;99.90;;;;;;4953258;28;20030;-51
2023/12/05 05:08:37;;;;;;;1.33;0.63;;;20.20;99.90;;;;;;4951805;29;20477;-52
2023/12/05 05:11:02;;;;;;;1.02;0.93;;;20.20;99.90;;;;;;4966708;28;20027;-52
2023/12/05 05:13:28;;;;;;;1.30;0.77;;;20.10;99.90;;;;;;4955592;28;20054;-52
2023/12/05 05:15:54;;;;;;;1.63;0.80;;;20.20;99.90;;;;;;4958054;29;20015;-54
2023/12/05 05:18:20;;;;;;;1.48;0.70;;;20.20;99.90;;;;;;4956766;28;20106;-52
2023/12/05 05:20:46;;;;;;;2.05;0.88;;;20.10;99.90;;;;;;4956328;28;20031;-52
2023/12/05 05:23:11;;;;;;;1.05;0.63;;;20.20;99.90;;;;;;4957567;29;20031;-52
2023/12/05 05:25:37;;;;;;;3.03;0.88;;;20.20;99.90;;;;;;4957611;28;20058;-52
2023/12/05 05:28:03;;;;;;;2.35;0.65;;;20.20;99.90;;;;;;4956179;28;20031;-52
2023/12/05 05:30:29;;;;;;;0.93;0.60;;;20.20;99.90;;;;;;4957392;29;20027;-52
2023/12/05 05:32:54;;;;;;;1.63;0.57;;;20.20;99.90;;;;;;4957655;28;20439;-52
2023/12/05 05:35:20;;;;;;;0.98;0.35;;;20.10;99.90;;;;;;4957226;28;20031;-52
2023/12/05 05:37:46;;;;;;;1.35;0.85;;;20.10;99.90;;;;;;4957287;29;20034;-52
2023/12/05 05:40:13;;;;;;;2.78;0.70;;;20.20;99.90;;;;;;4957307;29;20024;-52
2023/12/05 05:42:39;;;;;;;2.03;1.00;;;20.10;99.90;;;;;;4957381;28;20054;-52
2023/12/05 05:45:05;;;;;;;1.08;0.90;;;20.10;99.90;;;;;;4955914;28;20376;-52
2023/12/05 05:47:31;;;;;;;1.45;0.50;;;20.10;99.90;;;;;;4957213;28;20031;-52
2023/12/05 05:49:57;;;;;;;1.88;0.65;;;20.20;99.90;;;;;;4955955;29;20027;-52
2023/12/05 05:52:23;;;;;;;1.40;0.60;;;20.10;99.90;;;;;;4956976;28;20391;-52
2023/12/05 05:54:50;;;;;;;2.45;0.77;;;20.20;99.90;;;;;;4957210;28;20023;-52
2023/12/05 05:57:16;;;;;;;0.68;0.57;;;20.20;99.90;;;;;;4957028;29;20027;-52
2023/12/05 05:59:43;;;;;;;1.35;0.60;;;20.20;99.90;;;;;;4957048;29;20035;-52
2023/12/05 06:02:09;;;;;;;2.60;0.93;;;20.20;99.90;;;;;;4955169;29;20054;-52
2023/12/05 06:04:41;;;;;;;0.98;0.40;;;20.20;99.90;;;;;;4956005;28;20121;-53
2023/12/05 06:07:08;;;;;;;1.33;0.52;;;20.20;99.90;;;;;;4955878;28;20037;-52
2023/12/05 06:09:34;;;;;;;1.15;0.60;;;20.20;99.90;;;;;;4956552;28;20535;-52
2023/12/05 06:12:02;;;;;;;1.63;0.70;;;20.10;99.90;;;;;;4970792;28;20110;-52
2023/12/05 06:14:28;;;;;;;;;;;20.10;99.90;;;;;;4972062;28;20020;-52
2023/12/05 06:16:54;;;;;;;2.17;0.60;;;20.20;99.90;;;;;;4956643;28;19914;-52
2023/12/05 06:19:19;;;;;;;0.88;0.60;;;20.10;99.90;;;;;;4956599;28;20035;-53
2023/12/05 06:21:45;;;;;;;1.77;0.60;;;20.20;99.90;;;;;;4956648;28;20496;-52
2023/12/05 06:24:11;;;;;;;1.02;0.50;;;20.20;99.90;;;;;;4956456;28;20035;-52
2023/12/05 06:26:37;;;;;;;2.03;0.90;;;20.10;99.90;;;;;;4956413;29;20098;-52
2023/12/05 06:29:06;;;;;;;1.58;0.90;;;20.10;99.90;;;;;;4956589;29;20051;-52
2023/12/05 06:31:32;;;;;;;2.97;0.80;;;20.10;99.90;;;;;;4956276;28;20522;-53
2023/12/05 06:34:01;;;;;;;1.65;0.80;;;20.10;99.90;;;;;;4956664;28;20031;-53
2023/12/05 06:36:27;;;;;;;1.75;0.70;;;20.10;99.90;;;;;;4956390;29;20020;-53
2023/12/05 06:38:52;;;;;;;1.52;0.60;;;20.10;99.90;;;;;;4956282;28;20082;-53
2023/12/05 06:41:18;;;;;;;1.38;0.70;;;20.10;99.90;;;;;;4955911;28;20042;-54
2023/12/05 06:43:44;;;;;;;2.15;1.02;;;20.10;99.90;;;;;;4956069;28;20030;-53
2023/12/05 06:46:10;;;;;;;3.72;1.80;;;20.10;99.90;;;;;;4956004;29;20031;-53
2023/12/05 06:48:35;;;;;;;2.17;1.33;;;20.10;99.90;;;;;;4954657;28;20372;-53
2023/12/05 06:51:01;;;;;;;4.47;1.15;;;20.10;99.90;;;;;;4956129;29;20027;-53
2023/12/05 06:53:27;;;;;;;1.95;1.10;;;20.10;99.90;;;;;;4955643;28;20496;-53
2023/12/05 06:55:53;;;;;;;8.40;1.10;;;20.10;99.90;;;;;;4955195;28;20038;-53
2023/12/05 06:58:21;;;;;;;1.63;1.15;;;20.10;99.90;;;;;;4955349;28;20024;-54
2023/12/05 07:00:48;;;;;;;2.85;1.42;;;20.10;99.90;;;;;;4969781;28;20034;-53
2023/12/05 07:03:15;;;;;;;3.63;1.25;;;20.10;99.90;;;;;;4954294;28;20162;-53
2023/12/05 07:05:41;;;;;;;7.25;1.55;;;20.10;99.90;;;;;;4954773;28;20370;-53
2023/12/05 07:08:07;;;;;;;4.03;1.50;;;20.10;99.90;;;;;;4954414;28;20114;-54
2023/12/05 07:10:33;;;;;;;5.22;1.70;;;20.10;99.90;;;;;;4954583;28;20023;-53
2023/12/05 07:12:58;;;;;;;5.22;1.90;;;20.10;99.90;;;;;;4954554;29;20079;-54
2023/12/05 07:15:24;;;;;;;2.95;1.27;;;20.10;99.90;;;;;;4954462;29;20031;-53
2023/12/05 07:17:50;;;;;;;2.53;1.50;;;20.00;99.90;;;;;;4954482;28;20039;-53
2023/12/05 07:20:16;;;;;;;5.28;1.50;;;20.10;99.90;;;;;;4953199;29;20114;-53
2023/12/05 07:22:43;;;;;;;3.03;1.42;;;20.00;99.90;;;;;;4954484;29;20034;-53
2023/12/05 07:25:08;;;;;;;4.15;1.35;;;20.00;99.90;;;;;;4954532;29;20023;-53
2023/12/05 07:27:35;;;;;;;3.42;1.63;;;20.10;99.90;;;;;;4954687;29;20023;-53
2023/12/05 07:30:02;;;;;;;3.88;1.42;;;20.00;99.90;;;;;;4954619;28;20024;-53
2023/12/05 07:32:27;;;;;;;5.80;1.80;;;20.00;99.90;;;;;;4969027;28;20488;-53
2023/12/05 07:34:53;;;;;;;6.07;1.90;;;20.00;99.90;;;;;;4954414;28;20034;-53
2023/12/05 07:37:19;;;;;;;4.10;1.92;;;20.00;99.90;;;;;;4953649;28;20031;-54
2023/12/05 07:39:45;;;;;;;4.68;1.67;;;20.00;99.90;;;;;;4954247;28;20465;-54
2023/12/05 07:42:10;;;;;;;6.75;2.53;;;20.10;99.90;;;;;;4954082;29;20036;-54
2023/12/05 07:44:36;;;;;;;5.30;2.17;;;20.00;99.90;;;;;;4954232;29;20023;-54
2023/12/05 07:47:03;;;;;;;5.57;1.70;;;20.00;99.90;;;;;;4953139;29;20476;-53
2023/12/05 07:49:28;;;;;;;9.18;2.88;;;20.00;99.90;;;;;;4954227;28;20020;-52
2023/12/05 07:51:55;;;;;;;7.55;3.10;;;20.00;99.90;;;;;;4954008;29;20039;-53
2023/12/05 07:54:21;;;;;;;5.47;1.83;;;20.00;99.90;;;;;;4954045;29;20019;-53
2023/12/05 07:56:47;;;;;;;6.07;2.08;;;20.00;99.90;;;;;;4954080;29;20035;-53
2023/12/05 07:59:12;;;;;;;4.75;2.67;;;20.00;99.90;;;;;;4953998;28;20020;-53
2023/12/05 08:01:42;;;;;;;8.55;2.65;;;20.00;99.90;;;;;;4910253;28;1289884;-54
2023/12/05 08:04:08;;;;;;;6.57;2.10;;;20.00;99.90;;;;;;4953421;29;20050;-53
2023/12/05 08:06:34;;;;;;;9.07;2.60;;;20.00;99.90;;;;;;4954852;29;20027;-54
2023/12/05 08:09:00;;;;;;;6.45;2.63;;;20.00;99.90;;;;;;4954484;28;20603;-53
2023/12/05 08:11:26;;;;;;;3.35;2.00;;;20.00;99.90;;;;;;4954433;29;20059;-53
2023/12/05 08:13:52;;;;;;;3.17;1.92;;;20.00;99.90;;;;;;4954452;28;20054;-53
2023/12/05 08:16:19;;;;;;;5.00;2.75;;;20.00;99.90;;;;;;4954461;29;20075;-54
2023/12/05 08:18:44;;;;;;;6.03;2.40;;;20.00;99.90;;;;;;4954373;28;20074;-53
2023/12/05 08:21:10;;;;;;;5.55;2.42;;;20.10;99.90;;;;;;4954529;28;20102;-54
2023/12/05 08:23:36;;;;;;;3.60;2.20;;;20.00;99.90;;;;;;4954743;29;20388;-53
2023/12/05 08:26:02;;;;;;;3.63;2.10;;;20.00;99.90;;;;;;4954369;28;20027;-53
2023/12/05 08:28:29;;;;;;;5.05;2.70;;;20.00;99.90;;;;;;4954288;28;20194;-53
2023/12/05 08:30:55;;;;;;;4.78;2.25;;;20.00;99.90;;;;;;4954299;29;20106;-53
2023/12/05 08:33:20;;;;;;;5.55;2.40;;;20.00;99.90;;;;;;4954237;29;20114;-53
2023/12/05 08:35:46;;;;;;;7.03;2.55;;;20.00;99.90;;;;;;4954284;28;20028;-53
2023/12/05 08:38:12;;;;;;;3.85;2.50;;;20.00;99.90;;;;;;4954178;29;20023;-53
2023/12/05 08:40:38;;;;;;;3.45;2.30;;;20.00;99.90;;;;;;4954374;29;20031;-53
2023/12/05 08:43:04;;;;;;;4.82;2.30;;;20.10;99.90;;;;;;4954266;28;20123;-53
2023/12/05 08:45:30;;;;;;;5.03;2.90;;;20.10;99.90;;;;;;4954025;28;20023;-53
2023/12/05 08:47:56;;;;;;;6.85;2.50;;;20.10;99.90;;;;;;4953216;29;20024;-53
2023/12/05 08:50:22;;;;;;;6.03;2.60;;;20.10;99.90;;;;;;4953941;28;20380;-53
2023/12/05 08:52:48;;;;;;;6.30;2.58;;;20.10;99.90;;;;;;4953937;28;20071;-52
2023/12/05 08:55:14;;;;;;;5.90;2.50;;;20.10;99.90;;;;;;4953982;29;20070;-53
2023/12/05 08:57:41;;;;;;;7.35;2.53;;;20.10;99.90;;;;;;4953719;28;20110;-53
2023/12/05 09:00:08;;;;;;;3.83;2.25;;;20.10;99.90;;;;;;4954039;29;20103;-53
2023/12/05 09:02:34;;;;;;;6.13;2.45;;;20.10;99.90;;;;;;4953723;28;20043;-53
2023/12/05 09:05:04;;;;;;;7.85;2.75;;;20.10;99.90;;;;;;4953883;28;20041;-53
2023/12/05 09:07:30;;;;;;;6.05;2.40;;;20.10;99.90;;;;;;4953788;28;20082;-53
2023/12/05 09:09:56;;;;;;;7.55;2.72;;;20.10;99.90;;;;;;4953791;28;20042;-53
2023/12/05 09:12:22;;;;;;;4.03;2.42;;;20.10;99.90;;;;;;4952514;29;20384;-53
2023/12/05 09:14:48;;;;;;;2.85;1.92;;;20.10;99.90;;;;;;4953730;28;20020;-53
2023/12/05 09:17:15;;;;;;;5.97;2.70;;;20.10;99.90;;;;;;4953761;29;20024;-53
2023/12/05 09:19:41;;;;;;;4.07;2.47;;;20.10;99.90;;;;;;4953930;28;20379;-53
2023/12/05 09:22:07;;;;;;;4.28;2.45;;;20.10;99.90;;;;;;4954062;28;20023;-53
2023/12/05 09:24:32;;;;;;;3.17;1.98;;;20.10;99.90;;;;;;4953795;28;20054;-53
2023/12/05 09:26:58;;;;;;;8.60;2.13;;;20.20;99.90;;;;;;4953732;28;20031;-53
2023/12/05 09:29:24;;;;;;;7.32;2.42;;;20.20;99.90;;;;;;4953748;28;20098;-53
2023/12/05 09:31:50;;;;;;;7.28;2.53;;;20.20;99.90;;;;;;4953599;29;20588;-53
2023/12/05 09:34:16;;;;;;;5.38;2.95;;;20.20;99.90;;;;;;4953561;28;20098;-53
2023/12/05 09:36:42;;;;;;;8.18;2.55;;;20.20;99.90;;;;;;4953552;29;20038;-53
2023/12/05 09:39:08;;;;;;;6.00;2.63;;;20.20;99.90;;;;;;4953848;29;20032;-52
2023/12/05 09:41:40;;;;;;;4.07;2.35;;;20.20;99.90;;;;;;4953503;28;20031;-53
2023/12/05 09:44:08;;;;;;;6.45;2.53;;;20.20;99.90;;;;;;4953507;29;20022;-53
2023/12/05 09:46:36;;;;;;;6.50;2.15;;;20.20;99.90;;;;;;4968317;28;20542;-52
2023/12/05 09:49:06;;;;;;;6.13;1.98;;;20.30;99.90;;;;;;4953727;28;20043;-53
2023/12/05 09:51:34;;;;;;;5.82;2.10;;;20.20;99.90;;;;;;4953450;28;20039;-53
2023/12/05 09:54:00;;;;;;;5.38;2.40;;;20.30;99.90;;;;;;4953461;29;20020;-52
2023/12/05 09:56:27;;;;;;;5.25;2.25;;;20.30;99.90;;;;;;4953506;28;20392;-53
2023/12/05 09:58:54;;;;;;;3.95;2.33;;;20.30;99.90;;;;;;4954216;28;20074;-53
2023/12/05 10:01:22;;;;;;;4.70;1.80;;;20.30;99.90;;;;;;4956770;28;20389;-53
2023/12/05 10:03:57;;;;;;;6.03;2.38;;;20.30;99.90;;;;;;4955738;29;20023;-53
2023/12/05 10:06:25;;;;;;;8.05;2.22;;;20.30;99.90;;;;;;4956549;28;20464;-53
2023/12/05 10:08:52;;;;;;;5.57;2.38;;;20.40;99.90;;;;;;4956781;28;20098;-53
2023/12/05 10:11:21;;;;;;;6.70;2.43;;;20.40;99.90;;;;;;4956666;28;20031;-52
2023/12/05 10:13:47;;;;;;;7.28;2.47;;;20.40;99.90;;;;;;4971512;28;20266;-52
2023/12/05 10:16:14;;;;;;;4.65;1.90;;;20.40;99.90;;;;;;4956658;28;20396;-52
2023/12/05 10:18:41;;;;;;;5.50;2.08;;;20.40;99.90;;;;;;4956565;29;20471;-51
2023/12/05 10:21:06;;;;;;;5.38;2.10;;;20.50;99.90;;;;;;4956477;28;20034;-53
2023/12/05 10:23:33;;;;;;;3.22;1.90;;;20.50;99.90;;;;;;4955239;29;20035;-53
2023/12/05 10:25:59;;;;;;;4.82;2.05;;;20.60;99.90;;;;;;4956427;28;20094;-52
2023/12/05 10:28:25;;;;;;;4.53;2.00;;;20.60;99.90;;;;;;4956279;28;20058;-53
2023/12/05 10:30:51;;;;;;;2.75;1.98;;;20.60;99.90;;;;;;4956306;28;20122;-53
2023/12/05 10:33:19;;;;;;;4.43;2.00;;;20.60;99.90;;;;;;4954969;28;20027;-52
2023/12/05 10:35:45;;;;;;;;;;;20.70;99.90;;;;;;4956622;28;20038;-53
2023/12/05 10:38:12;;;;;;;5.95;3.28;;;20.70;99.90;;;;;;4956399;28;19931;-53
2023/12/05 10:40:59;;;;;;;2.95;1.90;;;20.70;99.90;;;;;;4956114;28;20110;-53
2023/12/05 10:43:26;;;;;;;4.63;2.28;;;20.70;99.90;;;;;;4956155;29;20029;-54
2023/12/05 10:45:53;;;;;;;3.35;2.10;;;20.80;99.90;;;;;;4956134;28;20031;-54
2023/12/05 10:48:19;;;;;;;6.57;2.53;;;20.80;99.90;;;;;;4970988;28;20499;-53
2023/12/05 10:50:51;;;;;;;7.00;2.67;;;20.80;99.90;;;;;;4956065;28;20058;-53
2023/12/05 10:53:17;;;;;;;4.95;2.60;;;20.80;99.90;;;;;;4956125;28;20026;-53
2023/12/05 10:55:44;;;;;;;5.03;2.42;;;20.80;99.90;;;;;;4956180;29;20361;-54
2023/12/05 10:58:11;;;;;;;4.65;2.58;;;20.80;99.90;;;;;;4955861;28;20024;-53
2023/12/05 11:00:37;;;;;;;4.93;2.42;;;20.80;99.90;;;;;;4955706;28;20027;-53
2023/12/05 11:03:03;;;;;;;4.20;2.72;;;20.80;99.90;;;;;;4955792;28;20019;-53
2023/12/05 11:05:33;;;;;;;4.82;2.55;;;20.80;99.90;;;;;;4955774;28;20024;-53
2023/12/05 11:08:00;;;;;;;4.55;2.67;;;20.80;99.90;;;;;;4955844;28;20031;-54
2023/12/05 11:10:28;;;;;;;4.57;2.78;;;20.80;99.90;;;;;;4954662;28;20019;-53
2023/12/05 11:12:56;;;;;;;3.60;2.60;;;20.80;99.90;;;;;;4955561;29;20075;-54
2023/12/05 11:15:29;;;;;;;5.72;2.80;;;20.80;99.90;;;;;;4955727;28;20023;-54
2023/12/05 11:18:05;;;;;;;6.53;3.05;;;20.80;99.90;;;;;;4955517;29;20054;-55
2023/12/05 11:21:04;;;;;;;5.70;3.15;;;20.80;99.90;;;;;;4955598;29;20034;-55
2023/12/05 11:23:49;;;;;;;4.50;2.50;;;20.80;99.90;;;;;;4955342;28;20042;-54
2023/12/05 11:26:29;;;;;;;7.10;2.42;;;20.80;99.90;;;;;;4955463;28;20027;-54
2023/12/05 11:29:05;;;;;;;4.85;2.70;;;20.80;99.90;;;;;;4955373;28;20090;-54
2023/12/05 11:31:30;;;;;;;5.88;2.85;;;20.80;99.90;;;;;;4955085;28;20039;-54
2023/12/05 11:34:28;;;;;;;6.13;2.33;;;20.80;99.90;;;;;;4955070;28;20111;-54
2023/12/05 11:37:35;;;;;;;5.22;2.78;;;20.80;99.90;;;;;;4955069;28;20127;-54
2023/12/05 11:40:01;;;;;;;5.25;2.83;;;20.80;99.90;;;;;;4947617;28;20499;-54
2023/12/05 11:42:30;;;;;;;7.50;2.95;;;20.80;99.90;;;;;;4955073;29;20023;-54
2023/12/05 11:44:56;;;;;;;;;;;20.80;99.90;;;;;;4955481;28;20383;-54
2023/12/05 11:47:28;;;;;;;4.85;2.70;;;20.80;99.90;;;;;;4954948;28;19993;-54
2023/12/05 11:50:00;;;;;;;4.88;2.60;;;20.80;99.90;;;;;;4954887;28;20476;-54
2023/12/05 11:52:37;;;;;;;5.38;2.90;;;20.80;99.90;;;;;;4954641;28;20039;-54
2023/12/05 11:55:04;;;;;;;4.47;2.70;;;20.80;99.90;;;;;;4954838;29;20428;-54
2023/12/05 11:57:32;;;;;;;5.40;2.63;;;20.80;99.90;;;;;;4954779;29;20031;-54
2023/12/05 11:59:59;;;;;;;5.20;2.45;;;20.80;99.90;;;;;;4954721;28;20023;-53
2023/12/05 12:02:44;;;;;;;3.88;2.55;;;20.80;99.90;;;;;;4954524;28;20062;-54
2023/12/05 12:05:11;;;;;;;3.75;2.65;;;20.80;99.90;;;;;;4954702;28;20038;-54
2023/12/05 12:07:48;;;;;;;;;;;20.80;99.90;;;;;;4955134;28;20023;-54
2023/12/05 12:10:18;;;;;;;5.37;2.77;;;20.80;99.90;;;;;;4954743;28;19907;-54
2023/12/05 12:12:45;;;;;;;5.75;2.55;;;20.80;99.90;;;;;;4954690;29;20043;-54
2023/12/05 12:15:15;;;;;;;4.97;2.75;;;20.80;99.90;;;;;;4954608;28;20082;-54
2023/12/05 12:17:42;;;;;;;5.93;2.75;;;20.80;99.90;;;;;;4954445;28;20417;-54
2023/12/05 12:20:15;;;;;;;;;;;20.80;99.90;;;;;;4954876;28;20085;-54
2023/12/05 12:22:43;;;;;;;6.05;2.97;;;20.80;99.90;;;;;;4954283;28;19997;-54
2023/12/05 12:25:13;;;;;;;4.60;2.70;;;20.80;99.90;;;;;;4954288;29;20019;-54
2023/12/05 12:27:40;;;;;;;3.92;2.40;;;20.80;99.90;;;;;;4954343;29;20019;-54
2023/12/05 12:30:13;;;;;;;5.63;2.78;;;20.80;99.90;;;;;;4954393;28;20058;-53
2023/12/05 12:32:55;;;;;;;3.33;2.03;;;20.80;99.90;;;;;;4954309;29;20492;-54
2023/12/05 12:35:22;;;;;;;6.50;2.42;;;20.70;99.90;;;;;;4952932;29;20424;-54
2023/12/05 12:37:50;;;;;;;6.83;2.17;;;20.70;99.90;;;;;;4954504;28;20142;-54
2023/12/05 12:40:18;;;;;;;;;;;20.70;99.90;;;;;;4954689;29;20027;-54
2023/12/05 12:42:44;;;;;;;;;;;20.70;99.90;;;;;;4954579;28;19906;-54
2023/12/05 12:45:11;;;;;;;4.97;2.30;;;20.80;99.90;;;;;;4954128;28;20430;-54
2023/12/05 12:47:37;;;;;;;2.58;2.03;;;20.80;99.90;;;;;;4954134;28;20028;-54
2023/12/05 12:50:04;;;;;;;5.18;2.50;;;20.70;99.90;;;;;;4952961;29;20027;-54
2023/12/05 12:52:30;;;;;;;5.65;2.22;;;20.80;99.90;;;;;;4953816;29;20504;-54